Time;durP1;ratioP1;P1;durP2;ratioP2;P2;SDS_P1;SDS_P2;PMS_P1;PMS_P2;Temp;Humidity;BMP_temperature;BMP_pressure;BME280_temperature;BME280_humidity;BME280_pressure;Samples;Min_cycle;Max_cycle;Signal;HPM_P1;HPM_P2
2023/12/30 00:02:09;;;;;;;1.30;1.20;;;7.60;99.90;;;;;;5062672;27;21201;-72
2023/12/30 00:04:36;;;;;;;1.63;1.53;;;7.70;99.90;;;;;;5041427;28;20746;-72
2023/12/30 00:07:03;;;;;;;1.00;1.00;;;7.80;99.90;;;;;;5037515;28;20641;-72
2023/12/30 00:09:30;;;;;;;1.27;1.17;;;7.90;99.90;;;;;;5034450;28;20627;-72
2023/12/30 00:11:58;;;;;;;1.20;1.10;;;7.90;99.90;;;;;;5040344;28;21102;-72
2023/12/30 00:14:25;;;;;;;1.87;1.43;;;8.00;99.90;;;;;;5053327;27;21262;-72
2023/12/30 00:16:52;;;;;;;1.50;1.13;;;8.00;99.90;;;;;;5053393;28;21153;-72
2023/12/30 00:19:19;;;;;;;3.20;2.17;;;8.00;99.90;;;;;;5056178;27;20641;-72
2023/12/30 00:21:46;;;;;;;1.83;1.63;;;8.00;99.90;;;;;;5055739;27;20683;-72
2023/12/30 00:24:12;;;;;;;1.20;1.03;;;8.00;99.90;;;;;;5052023;27;20626;-72
2023/12/30 00:26:39;;;;;;;1.30;1.20;;;8.10;99.90;;;;;;5046876;27;20630;-72
2023/12/30 00:29:07;;;;;;;1.23;1.17;;;8.30;99.90;;;;;;5044224;27;20753;-72
2023/12/30 00:31:34;;;;;;;1.57;1.37;;;8.30;99.90;;;;;;5041153;28;21160;-72
2023/12/30 00:34:04;;;;;;;1.63;1.47;;;8.40;99.90;;;;;;5044952;28;20633;-71
2023/12/30 00:36:30;;;;;;;1.23;1.23;;;8.50;99.90;;;;;;5039867;27;20618;-72
2023/12/30 00:38:57;;;;;;;1.90;1.47;;;8.40;99.90;;;;;;5042322;27;20653;-72
2023/12/30 00:41:25;;;;;;;2.00;1.80;;;8.40;99.90;;;;;;5037435;28;20668;-72
2023/12/30 00:43:52;;;;;;;1.60;1.20;;;8.50;99.90;;;;;;5038220;28;20719;-72
2023/12/30 00:46:20;;;;;;;2.10;1.47;;;8.50;99.90;;;;;;5041206;28;20734;-72
2023/12/30 00:48:47;;;;;;;2.50;1.20;;;8.50;99.90;;;;;;5037316;28;20641;-72
2023/12/30 00:51:14;;;;;;;2.03;1.47;;;8.40;99.90;;;;;;5038160;28;20629;-72
2023/12/30 00:53:41;;;;;;;2.50;1.57;;;8.40;99.90;;;;;;5035285;28;20972;-72
2023/12/30 00:56:08;;;;;;;1.77;1.20;;;8.50;99.90;;;;;;5036399;28;20649;-72
2023/12/30 00:58:37;;;;;;;2.47;1.40;;;8.60;99.90;;;;;;5038154;28;20633;-72
2023/12/30 01:01:04;;;;;;;4.03;2.17;;;8.60;99.90;;;;;;5041005;27;21240;-72
2023/12/30 01:03:32;;;;;;;1.53;1.43;;;8.60;99.90;;;;;;5039652;27;20622;-72
2023/12/30 01:06:00;;;;;;;2.77;1.33;;;8.60;99.90;;;;;;5044597;27;21231;-72
2023/12/30 01:08:28;;;;;;;1.53;1.43;;;8.60;99.90;;;;;;5045103;28;20639;-72
2023/12/30 01:10:55;;;;;;;3.40;1.20;;;8.60;99.90;;;;;;5043873;28;20630;-72
2023/12/30 01:13:22;;;;;;;1.80;1.70;;;8.50;99.90;;;;;;5039838;28;21014;-72
2023/12/30 01:15:49;;;;;;;1.97;1.43;;;8.60;99.90;;;;;;5051742;28;20622;-72
2023/12/30 01:18:16;;;;;;;1.87;1.43;;;8.60;99.90;;;;;;5057179;28;20621;-72
2023/12/30 01:20:45;;;;;;;2.20;1.37;;;8.60;99.90;;;;;;5056120;27;20688;-72
2023/12/30 01:23:11;;;;;;;2.03;1.83;;;8.60;99.90;;;;;;5048851;28;20669;-72
2023/12/30 01:25:38;;;;;;;1.50;1.40;;;8.60;99.90;;;;;;5053391;28;20629;-72
2023/12/30 01:28:04;;;;;;;1.50;1.40;;;8.50;99.90;;;;;;5051895;28;21195;-72
2023/12/30 01:30:31;;;;;;;3.00;1.43;;;8.60;99.90;;;;;;5043667;28;21199;-73
2023/12/30 01:32:58;;;;;;;1.80;1.50;;;8.60;99.90;;;;;;5050361;28;21168;-72
2023/12/30 01:35:25;;;;;;;1.30;1.20;;;8.60;99.90;;;;;;5044825;28;21195;-72
2023/12/30 01:37:53;;;;;;;1.17;1.07;;;8.50;99.90;;;;;;5049204;28;20638;-72
2023/12/30 01:40:20;;;;;;;1.10;1.07;;;8.60;99.90;;;;;;5042292;28;20681;-72
2023/12/30 01:42:46;;;;;;;2.33;1.80;;;8.50;99.90;;;;;;5047560;28;21193;-72
2023/12/30 01:45:13;;;;;;;1.13;1.13;;;8.60;99.90;;;;;;5038961;28;20623;-72
2023/12/30 01:47:40;;;;;;;1.50;1.17;;;8.50;99.90;;;;;;5040733;28;20634;-72
2023/12/30 01:50:09;;;;;;;2.27;2.07;;;8.50;99.90;;;;;;5050653;27;20638;-72
2023/12/30 01:52:37;;;;;;;2.10;1.23;;;8.40;99.90;;;;;;5039215;28;21160;-72
2023/12/30 01:55:08;;;;;;;2.40;1.27;;;8.40;99.90;;;;;;5040290;28;20633;-72
2023/12/30 01:57:35;;;;;;;2.00;1.60;;;8.30;99.90;;;;;;5039093;28;20626;-72
2023/12/30 02:00:05;;;;;;;3.00;1.43;;;8.30;99.90;;;;;;5063444;28;20772;-72
2023/12/30 02:02:32;;;;;;;1.47;1.33;;;8.30;99.90;;;;;;5059330;28;20671;-72
2023/12/30 02:04:59;;;;;;;2.37;1.70;;;8.30;99.90;;;;;;5057631;28;20618;-72
2023/12/30 02:07:26;;;;;;;1.40;1.30;;;8.20;99.90;;;;;;5059407;27;20685;-72
2023/12/30 02:09:52;;;;;;;1.50;1.33;;;8.20;99.90;;;;;;5060458;28;20638;-72
2023/12/30 02:12:21;;;;;;;1.13;1.03;;;8.10;99.90;;;;;;5058215;28;20621;-72
2023/12/30 02:14:47;;;;;;;1.20;1.10;;;8.20;99.90;;;;;;5059350;28;20629;-72
2023/12/30 02:17:14;;;;;;;1.23;1.13;;;8.20;99.90;;;;;;5057625;28;20626;-72
2023/12/30 02:19:42;;;;;;;1.47;1.37;;;8.20;99.90;;;;;;5056506;28;21231;-72
2023/12/30 02:22:09;;;;;;;1.00;1.00;;;8.20;99.90;;;;;;5056699;28;20665;-72
2023/12/30 02:24:38;;;;;;;2.50;1.90;;;8.10;99.90;;;;;;5053584;28;20635;-72
2023/12/30 02:27:05;;;;;;;1.37;1.27;;;8.00;99.90;;;;;;5056205;28;21106;-72
2023/12/30 02:29:33;;;;;;;1.43;1.33;;;8.00;99.90;;;;;;5047489;28;20623;-72
2023/12/30 02:32:01;;;;;;;3.00;1.47;;;8.00;99.90;;;;;;5052621;28;20630;-72
2023/12/30 02:34:29;;;;;;;4.20;1.40;;;8.00;99.90;;;;;;5046131;28;20636;-72
2023/12/30 02:36:57;;;;;;;1.83;1.33;;;8.00;99.90;;;;;;5050890;28;20626;-72
2023/12/30 02:39:25;;;;;;;1.70;1.60;;;7.90;99.90;;;;;;5048381;28;20679;-72
2023/12/30 02:41:53;;;;;;;2.10;1.50;;;8.00;99.90;;;;;;5047949;28;20681;-72
2023/12/30 02:44:21;;;;;;;2.13;2.03;;;8.00;99.90;;;;;;5048615;27;20741;-72
2023/12/30 02:46:48;;;;;;;1.30;1.20;;;7.90;99.90;;;;;;5046681;28;21050;-72
2023/12/30 02:49:14;;;;;;;2.10;1.83;;;8.00;99.90;;;;;;5045077;27;20742;-72
2023/12/30 02:51:41;;;;;;;3.60;1.43;;;7.90;99.90;;;;;;5044688;28;20622;-72
2023/12/30 02:54:08;;;;;;;2.47;1.17;;;7.90;99.90;;;;;;5043237;28;20627;-72
2023/12/30 02:56:35;;;;;;;1.50;1.40;;;8.00;99.90;;;;;;5037632;28;20623;-72
2023/12/30 02:59:04;;;;;;;2.83;2.03;;;7.90;99.90;;;;;;5052976;28;20642;-72
2023/12/30 03:01:32;;;;;;;2.00;1.60;;;8.00;99.90;;;;;;5047152;28;20762;-73
2023/12/30 03:04:01;;;;;;;2.00;1.40;;;8.00;99.90;;;;;;5061885;28;20670;-71
2023/12/30 03:06:29;;;;;;;3.23;1.57;;;8.00;99.90;;;;;;5055303;28;20793;-72
2023/12/30 03:08:57;;;;;;;1.57;1.47;;;7.90;99.90;;;;;;5040475;28;20807;-72
2023/12/30 03:11:25;;;;;;;1.43;1.10;;;7.90;99.90;;;;;;5043713;28;20625;-72
2023/12/30 03:13:53;;;;;;;2.13;1.73;;;7.80;99.90;;;;;;5038047;28;20662;-71
2023/12/30 03:16:23;;;;;;;2.13;1.57;;;7.70;99.90;;;;;;5059030;28;20633;-72
2023/12/30 03:18:50;;;;;;;1.93;1.07;;;7.70;99.90;;;;;;5055960;28;20638;-72
2023/12/30 03:21:19;;;;;;;2.10;1.17;;;7.70;99.90;;;;;;5058950;28;20781;-72
2023/12/30 03:23:46;;;;;;;2.40;1.70;;;7.70;99.90;;;;;;5056206;28;21007;-72
2023/12/30 03:26:14;;;;;;;1.10;1.00;;;7.80;99.90;;;;;;5054243;28;20203;-72
2023/12/30 03:28:43;;;;;;;1.73;1.43;;;7.70;99.90;;;;;;5051802;28;21443;-71
2023/12/30 03:31:22;;;;;;;1.40;1.30;;;7.70;99.90;;;;;;5057021;28;20649;-72
2023/12/30 03:33:49;;;;;;;2.00;1.20;;;7.70;99.90;;;;;;5044557;27;20714;-72
2023/12/30 03:36:16;;;;;;;1.77;1.33;;;7.70;99.90;;;;;;5054015;28;20618;-72
2023/12/30 03:38:44;;;;;;;1.77;1.50;;;7.80;99.90;;;;;;5062651;27;20640;-72
2023/12/30 03:41:12;;;;;;;2.60;1.20;;;7.70;99.90;;;;;;5077879;27;20665;-72
2023/12/30 03:43:41;;;;;;;2.70;1.47;;;7.70;99.90;;;;;;5089402;27;20626;-72
2023/12/30 03:46:08;;;;;;;1.70;1.40;;;7.80;99.90;;;;;;5085164;27;21572;-72
2023/12/30 03:48:38;;;;;;;0.93;0.93;;;7.80;99.90;;;;;;5071831;27;20642;-72
2023/12/30 03:51:06;;;;;;;0.93;0.90;;;7.80;99.90;;;;;;5082645;27;20741;-72
2023/12/30 03:53:33;;;;;;;1.33;1.23;;;7.70;99.90;;;;;;5090565;27;21010;-72
2023/12/30 03:56:00;;;;;;;1.43;1.13;;;7.80;99.90;;;;;;5050202;28;20650;-72
2023/12/30 03:58:27;;;;;;;1.73;1.27;;;7.70;99.90;;;;;;5046605;28;20709;-72
2023/12/30 04:00:54;;;;;;;3.77;1.60;;;7.70;99.90;;;;;;5040564;28;20666;-72
2023/12/30 04:03:20;;;;;;;1.40;1.30;;;7.70;99.90;;;;;;5050855;28;21205;-72
2023/12/30 04:05:49;;;;;;;1.30;1.20;;;7.70;99.90;;;;;;5042936;28;21254;-72
2023/12/30 04:08:15;;;;;;;0.83;0.83;;;7.80;99.90;;;;;;5047976;28;20737;-72
2023/12/30 04:10:42;;;;;;;1.20;1.00;;;7.80;99.90;;;;;;5038075;28;20628;-72
2023/12/30 04:13:09;;;;;;;0.70;0.60;;;7.80;99.90;;;;;;5040740;28;20720;-72
2023/12/30 04:15:36;;;;;;;0.80;0.80;;;7.80;99.90;;;;;;5039461;28;20649;-72
2023/12/30 04:18:03;;;;;;;0.97;0.77;;;7.70;99.90;;;;;;5045521;28;20729;-72
2023/12/30 04:20:30;;;;;;;4.87;1.07;;;7.80;99.90;;;;;;5059941;28;20721;-72
2023/12/30 04:22:58;;;;;;;0.87;0.80;;;7.80;99.90;;;;;;5060990;28;20726;-73
2023/12/30 04:25:25;;;;;;;0.70;0.70;;;7.80;99.90;;;;;;5056856;28;20631;-73
2023/12/30 04:27:52;;;;;;;1.33;0.93;;;7.80;99.90;;;;;;5053100;28;20627;-73
2023/12/30 04:30:18;;;;;;;1.30;1.20;;;7.80;99.90;;;;;;5047649;28;20631;-72
2023/12/30 04:32:45;;;;;;;1.33;1.23;;;7.70;99.90;;;;;;5061214;28;20617;-72
2023/12/30 04:35:12;;;;;;;0.73;0.60;;;7.80;99.90;;;;;;5053281;28;20729;-72
2023/12/30 04:37:39;;;;;;;1.90;1.10;;;7.70;99.90;;;;;;5046030;28;20718;-72
2023/12/30 04:40:08;;;;;;;1.83;1.00;;;7.80;99.90;;;;;;5053536;28;20987;-72
2023/12/30 04:42:35;;;;;;;0.73;0.73;;;7.70;99.90;;;;;;5035953;28;20673;-72
2023/12/30 04:45:02;;;;;;;0.97;0.97;;;7.70;99.90;;;;;;5049231;28;20993;-72
2023/12/30 04:47:29;;;;;;;1.13;0.80;;;7.70;99.90;;;;;;5047728;28;20646;-72
2023/12/30 04:49:57;;;;;;;1.10;1.00;;;7.70;99.90;;;;;;5067765;27;21019;-72
2023/12/30 04:52:23;;;;;;;0.93;0.63;;;7.70;99.90;;;;;;5054382;27;20636;-72
2023/12/30 04:54:50;;;;;;;1.23;1.07;;;7.80;99.90;;;;;;5048826;28;21170;-72
2023/12/30 04:57:18;;;;;;;1.37;1.10;;;7.80;99.90;;;;;;5050139;28;21192;-72
2023/12/30 04:59:45;;;;;;;0.93;0.83;;;7.80;99.90;;;;;;5047494;28;20747;-72
2023/12/30 05:02:12;;;;;;;0.90;0.67;;;7.90;99.90;;;;;;5050039;28;20676;-72
2023/12/30 05:04:38;;;;;;;0.63;0.47;;;7.90;99.90;;;;;;5047942;28;20629;-72
2023/12/30 05:07:05;;;;;;;0.83;0.83;;;7.80;99.90;;;;;;5042380;28;20627;-72
2023/12/30 05:09:35;;;;;;;0.93;0.93;;;7.80;99.90;;;;;;5046508;28;20629;-72
2023/12/30 05:12:02;;;;;;;1.00;1.00;;;7.90;99.90;;;;;;5047552;28;21167;-72
2023/12/30 05:14:30;;;;;;;0.57;0.57;;;7.80;99.90;;;;;;5038614;28;20630;-72
2023/12/30 05:16:57;;;;;;;0.80;0.80;;;7.80;99.90;;;;;;5045329;28;21197;-72
2023/12/30 05:19:23;;;;;;;1.57;1.10;;;7.80;99.90;;;;;;5032191;28;20637;-72
2023/12/30 05:21:52;;;;;;;0.50;0.50;;;7.90;99.90;;;;;;5063637;28;20654;-72
2023/12/30 05:24:18;;;;;;;0.50;0.50;;;7.80;99.90;;;;;;5048235;28;20637;-72
2023/12/30 05:26:46;;;;;;;0.80;0.80;;;7.80;99.90;;;;;;5038618;28;20630;-72
2023/12/30 05:29:13;;;;;;;0.50;0.50;;;7.90;99.90;;;;;;5042987;27;20694;-72
2023/12/30 05:31:41;;;;;;;1.77;1.00;;;7.90;99.90;;;;;;5049776;28;20626;-72
2023/12/30 05:34:08;;;;;;;1.07;0.73;;;8.00;99.90;;;;;;5053698;28;20632;-72
2023/12/30 05:36:37;;;;;;;0.73;0.73;;;7.90;99.90;;;;;;5054836;28;20722;-72
2023/12/30 05:39:04;;;;;;;1.03;0.90;;;8.00;99.90;;;;;;5055203;28;20629;-72
2023/12/30 05:41:31;;;;;;;0.70;0.60;;;7.90;99.90;;;;;;5055326;27;20677;-72
2023/12/30 05:43:58;;;;;;;9.70;1.20;;;8.00;99.90;;;;;;5057881;28;21165;-72
2023/12/30 05:46:24;;;;;;;0.70;0.60;;;8.10;99.90;;;;;;5054911;28;20673;-73
2023/12/30 05:48:52;;;;;;;0.67;0.50;;;8.10;99.90;;;;;;5053738;28;20643;-72
2023/12/30 05:51:19;;;;;;;0.70;0.63;;;7.90;99.90;;;;;;5052003;28;20636;-72
2023/12/30 05:53:46;;;;;;;0.70;0.53;;;8.00;99.90;;;;;;5051293;28;20631;-72
2023/12/30 05:56:20;;;;;;;1.10;0.83;;;7.90;99.90;;;;;;5049966;28;20628;-72
2023/12/30 05:58:47;;;;;;;2.50;0.73;;;8.00;99.90;;;;;;5048693;28;20633;-72
2023/12/30 06:01:14;;;;;;;0.73;0.60;;;7.90;99.90;;;;;;5051045;28;20625;-72
2023/12/30 06:03:40;;;;;;;0.53;0.50;;;8.00;99.90;;;;;;5048569;28;20631;-72
2023/12/30 06:06:09;;;;;;;0.40;0.30;;;8.00;99.90;;;;;;5046729;28;20668;-72
2023/12/30 06:08:35;;;;;;;0.67;0.57;;;8.00;99.90;;;;;;5045240;28;20975;-72
2023/12/30 06:11:02;;;;;;;1.60;1.30;;;8.00;99.90;;;;;;5044025;28;21011;-72
2023/12/30 06:13:30;;;;;;;1.10;0.70;;;8.00;99.90;;;;;;5043044;28;20623;-72
2023/12/30 06:15:57;;;;;;;0.93;0.53;;;8.00;99.90;;;;;;5039466;27;21196;-72
2023/12/30 06:18:26;;;;;;;0.60;0.60;;;7.90;99.90;;;;;;5045727;28;20630;-72
2023/12/30 06:20:53;;;;;;;0.77;0.77;;;7.80;99.90;;;;;;5056186;27;20698;-72
2023/12/30 06:23:21;;;;;;;1.90;1.00;;;7.90;99.90;;;;;;5041841;27;21313;-72
2023/12/30 06:25:48;;;;;;;1.13;0.83;;;7.90;99.90;;;;;;5055076;28;20987;-72
2023/12/30 06:28:15;;;;;;;0.43;0.30;;;7.90;99.90;;;;;;5048927;28;20616;-72
2023/12/30 06:30:41;;;;;;;0.60;0.60;;;7.90;99.90;;;;;;5058028;28;20643;-72
2023/12/30 06:33:08;;;;;;;0.70;0.40;;;7.80;99.90;;;;;;5048999;28;20628;-72
2023/12/30 06:35:35;;;;;;;0.93;0.77;;;7.80;99.90;;;;;;5055924;28;20633;-72
2023/12/30 06:38:02;;;;;;;0.53;0.53;;;7.80;99.90;;;;;;5057337;28;20644;-72
2023/12/30 06:40:30;;;;;;;0.90;0.67;;;7.80;99.90;;;;;;5045472;28;21348;-72
2023/12/30 06:42:57;;;;;;;0.53;0.53;;;7.90;99.90;;;;;;5057201;28;21030;-72
2023/12/30 06:45:24;;;;;;;1.40;0.80;;;7.70;99.90;;;;;;5039666;28;20987;-72
2023/12/30 06:47:50;;;;;;;0.87;0.87;;;7.80;99.90;;;;;;5049700;28;20632;-72
2023/12/30 06:50:19;;;;;;;1.90;0.80;;;7.80;99.90;;;;;;5045800;28;20621;-72
2023/12/30 06:52:46;;;;;;;1.80;1.40;;;7.70;99.90;;;;;;5051612;27;20650;-72
2023/12/30 06:55:14;;;;;;;0.90;0.70;;;7.80;99.90;;;;;;5046884;28;20628;-72
2023/12/30 06:57:43;;;;;;;1.33;0.50;;;7.80;99.90;;;;;;5038591;27;20764;-72
2023/12/30 07:00:10;;;;;;;1.20;1.07;;;7.80;99.90;;;;;;5048376;28;20666;-72
2023/12/30 07:02:36;;;;;;;1.03;1.00;;;7.70;99.90;;;;;;5042479;28;20735;-72
2023/12/30 07:05:04;;;;;;;0.93;0.93;;;7.70;99.90;;;;;;5047957;28;20631;-72
2023/12/30 07:07:30;;;;;;;1.20;1.10;;;7.70;99.90;;;;;;5046808;27;20653;-72
2023/12/30 07:09:57;;;;;;;0.30;0.30;;;7.80;99.90;;;;;;5041302;28;20634;-72
2023/12/30 07:12:24;;;;;;;1.70;1.10;;;7.70;99.90;;;;;;5040925;28;20653;-73
2023/12/30 07:14:52;;;;;;;1.60;0.93;;;7.70;99.90;;;;;;5031264;27;21196;-71
2023/12/30 07:17:19;;;;;;;0.97;0.93;;;7.70;99.90;;;;;;5024450;27;20638;-73
2023/12/30 07:19:46;;;;;;;0.60;0.60;;;7.70;99.90;;;;;;5044374;27;21042;-74
2023/12/30 07:22:13;;;;;;;0.70;0.70;;;7.70;99.90;;;;;;5049503;27;20671;-73
2023/12/30 07:24:40;;;;;;;0.87;0.87;;;7.80;99.90;;;;;;5042415;28;20626;-73
2023/12/30 07:27:06;;;;;;;1.10;0.83;;;7.70;99.90;;;;;;5050814;27;20637;-78
2023/12/30 07:29:33;;;;;;;2.00;1.20;;;7.70;99.90;;;;;;5041018;28;20630;-73
2023/12/30 07:32:01;;;;;;;0.70;0.60;;;7.70;99.90;;;;;;5041138;28;21001;-74
2023/12/30 07:34:28;;;;;;;1.27;1.17;;;7.80;99.90;;;;;;5051231;27;20995;-76
2023/12/30 07:36:56;;;;;;;1.10;1.00;;;7.80;99.90;;;;;;5055814;27;20622;-76
2023/12/30 07:39:23;;;;;;;0.80;0.80;;;7.90;99.90;;;;;;5046921;27;20637;-76
2023/12/30 07:41:49;;;;;;;1.40;1.30;;;7.80;99.90;;;;;;5046648;27;20667;-73
2023/12/30 07:44:16;;;;;;;0.77;0.77;;;7.80;99.90;;;;;;5048744;28;20636;-73
2023/12/30 07:46:43;;;;;;;1.30;1.20;;;7.80;99.90;;;;;;5052850;27;20726;-74
2023/12/30 07:49:11;;;;;;;1.73;1.13;;;7.70;99.90;;;;;;5047630;27;21170;-73
2023/12/30 07:51:38;;;;;;;1.40;1.20;;;7.80;99.90;;;;;;5042039;27;20622;-73
2023/12/30 07:54:05;;;;;;;1.40;0.93;;;7.70;99.90;;;;;;5045601;28;21189;-74
2023/12/30 07:56:32;;;;;;;1.03;0.93;;;7.80;99.90;;;;;;5047589;27;20996;-74
2023/12/30 07:58:59;;;;;;;1.57;1.03;;;7.80;99.90;;;;;;5040173;28;20622;-73
2023/12/30 08:01:26;;;;;;;6.83;1.40;;;7.80;99.90;;;;;;5048246;27;20728;-74
2023/12/30 08:03:53;;;;;;;1.73;1.40;;;7.80;99.90;;;;;;5042492;27;20666;-76
2023/12/30 08:06:21;;;;;;;1.53;1.43;;;7.90;99.90;;;;;;5045798;27;20717;-76
2023/12/30 08:08:48;;;;;;;1.33;1.13;;;7.90;99.90;;;;;;5033373;27;20704;-74
2023/12/30 08:11:15;;;;;;;2.80;1.53;;;7.90;99.90;;;;;;5038824;27;21192;-75
2023/12/30 08:13:42;;;;;;;1.63;1.13;;;8.00;99.90;;;;;;5041820;27;20637;-76
2023/12/30 08:16:09;;;;;;;1.37;1.27;;;8.10;99.90;;;;;;5040555;27;20619;-75
2023/12/30 08:18:35;;;;;;;2.10;1.43;;;8.10;99.90;;;;;;5034335;27;20624;-74
2023/12/30 08:21:02;;;;;;;1.90;1.50;;;8.10;99.90;;;;;;5030664;27;20650;-77
2023/12/30 08:23:30;;;;;;;1.77;1.67;;;8.10;99.90;;;;;;5041901;28;20678;-74
2023/12/30 08:25:57;;;;;;;1.13;1.03;;;8.10;99.90;;;;;;5056725;28;20624;-74
2023/12/30 08:28:24;;;;;;;1.30;1.20;;;8.10;99.90;;;;;;5049728;27;20641;-75
2023/12/30 08:30:53;;;;;;;1.03;0.93;;;8.20;99.90;;;;;;5061129;27;20637;-74
2023/12/30 08:33:20;;;;;;;2.30;1.20;;;8.40;99.90;;;;;;5060297;27;21213;-75
2023/12/30 08:35:48;;;;;;;2.63;1.43;;;8.30;99.90;;;;;;5055324;27;20717;-76
2023/12/30 08:38:15;;;;;;;1.23;1.13;;;8.30;99.90;;;;;;5047823;27;20626;-74
2023/12/30 08:40:44;;;;;;;1.50;1.40;;;8.30;99.90;;;;;;5049527;28;20623;-77
2023/12/30 08:43:11;;;;;;;1.30;1.13;;;8.40;99.90;;;;;;5048023;27;20680;-78
2023/12/30 08:45:38;;;;;;;2.73;0.90;;;8.40;99.90;;;;;;5047526;27;20607;-75
2023/12/30 08:48:06;;;;;;;1.13;1.03;;;8.40;99.90;;;;;;5057556;27;20780;-79
2023/12/30 08:50:33;;;;;;;1.60;1.47;;;8.50;99.90;;;;;;5042736;27;20661;-77
2023/12/30 08:53:00;;;;;;;1.40;1.30;;;8.50;99.90;;;;;;5046113;28;21043;-76
2023/12/30 08:55:27;;;;;;;1.90;1.80;;;8.50;99.90;;;;;;5042727;28;20632;-75
2023/12/30 08:57:55;;;;;;;1.90;1.13;;;8.60;99.90;;;;;;5041843;28;20677;-75
2023/12/30 09:00:22;;;;;;;3.30;2.20;;;8.50;99.90;;;;;;5042987;28;21019;-76
2023/12/30 09:02:49;;;;;;;1.23;1.10;;;8.60;99.90;;;;;;5036498;28;21234;-74
2023/12/30 09:05:18;;;;;;;2.73;1.67;;;8.50;99.90;;;;;;5039078;28;20717;-74
2023/12/30 09:07:45;;;;;;;2.57;1.60;;;8.60;99.90;;;;;;5036616;28;20987;-75
2023/12/30 09:10:12;;;;;;;1.00;1.00;;;8.60;99.90;;;;;;5036357;28;20628;-74
2023/12/30 09:12:38;;;;;;;1.03;0.93;;;8.60;99.90;;;;;;5036061;28;20642;-75
2023/12/30 09:15:20;;;;;;;1.03;0.70;;;8.50;99.90;;;;;;5036582;28;21209;-76
2023/12/30 09:17:47;;;;;;;0.97;0.90;;;8.60;99.90;;;;;;5033117;27;20659;-74
2023/12/30 09:20:13;;;;;;;1.57;1.40;;;8.70;99.90;;;;;;5034100;27;20634;-74
2023/12/30 09:22:40;;;;;;;0.80;0.80;;;8.80;99.90;;;;;;5037432;28;21093;-74
2023/12/30 09:25:08;;;;;;;1.43;1.10;;;8.80;99.90;;;;;;5038435;28;20626;-74
2023/12/30 09:27:35;;;;;;;1.07;0.97;;;8.80;99.90;;;;;;5039874;28;20630;-75
2023/12/30 09:30:02;;;;;;;0.50;0.50;;;8.80;99.90;;;;;;5035864;28;20661;-75
2023/12/30 09:32:30;;;;;;;1.33;0.70;;;8.90;99.90;;;;;;5038981;28;21060;-75
2023/12/30 09:34:57;;;;;;;2.57;0.80;;;8.90;99.90;;;;;;5042196;28;21126;-75
2023/12/30 09:37:23;;;;;;;0.60;0.40;;;8.90;99.90;;;;;;5042862;28;20639;-74
2023/12/30 09:39:51;;;;;;;1.27;0.60;;;9.00;99.90;;;;;;5040778;28;20634;-74
2023/12/30 09:42:18;;;;;;;1.20;0.80;;;9.10;99.90;;;;;;5038885;28;20627;-74
2023/12/30 09:44:47;;;;;;;0.70;0.53;;;9.20;99.90;;;;;;5064992;27;20728;-74
2023/12/30 09:47:14;;;;;;;2.13;0.77;;;9.30;99.90;;;;;;5026336;27;20652;-76
2023/12/30 09:49:45;;;;;;;1.07;1.07;;;9.20;99.90;;;;;;5036827;27;20716;-78
2023/12/30 09:52:12;;;;;;;0.53;0.53;;;9.10;99.90;;;;;;5049222;27;20740;-78
2023/12/30 09:54:40;;;;;;;1.87;1.77;;;9.00;99.90;;;;;;5032471;28;20635;-78
2023/12/30 09:57:07;;;;;;;0.93;0.73;;;8.90;99.90;;;;;;5035727;28;20624;-78
2023/12/30 09:59:35;;;;;;;0.70;0.70;;;8.90;99.90;;;;;;5038641;28;21036;-78
2023/12/30 10:02:03;;;;;;;0.67;0.67;;;8.90;99.90;;;;;;5030874;28;20678;-78
2023/12/30 10:04:30;;;;;;;0.93;0.90;;;8.80;99.90;;;;;;5027741;28;21321;-78
2023/12/30 10:06:58;;;;;;;0.70;0.60;;;8.80;99.90;;;;;;5032983;28;20631;-78
2023/12/30 10:09:25;;;;;;;1.17;0.57;;;8.70;99.90;;;;;;5036668;28;20631;-78
2023/12/30 10:11:52;;;;;;;3.83;0.60;;;8.70;99.90;;;;;;5028898;28;20629;-79
2023/12/30 10:14:18;;;;;;;0.77;0.70;;;8.70;99.90;;;;;;5040547;28;20635;-75
2023/12/30 10:16:45;;;;;;;0.53;0.50;;;8.70;99.90;;;;;;5030759;28;21052;-76
2023/12/30 10:19:13;;;;;;;1.10;1.00;;;8.80;99.90;;;;;;5036957;28;21098;-76
2023/12/30 10:21:40;;;;;;;0.70;0.50;;;8.80;99.90;;;;;;5026021;28;20627;-75
2023/12/30 10:24:08;;;;;;;0.60;0.50;;;8.80;99.90;;;;;;5043796;28;20674;-75
2023/12/30 10:26:37;;;;;;;0.53;0.53;;;8.80;99.90;;;;;;5059181;28;20625;-76
2023/12/30 10:29:04;;;;;;;0.50;0.50;;;8.80;99.90;;;;;;5048231;27;20635;-76
2023/12/30 10:31:31;;;;;;;1.13;0.60;;;8.90;99.90;;;;;;5051810;28;20665;-76
2023/12/30 10:33:58;;;;;;;1.80;0.60;;;8.90;99.90;;;;;;5045776;28;20622;-77
2023/12/30 10:36:28;;;;;;;1.23;0.70;;;8.90;99.90;;;;;;5042364;28;20640;-77
2023/12/30 10:38:56;;;;;;;0.60;0.50;;;9.10;99.90;;;;;;5044674;28;20625;-76
2023/12/30 10:41:26;;;;;;;0.50;0.50;;;9.00;99.90;;;;;;5046899;27;20619;-76
2023/12/30 10:43:53;;;;;;;0.50;0.40;;;9.10;99.90;;;;;;5047643;27;20712;-77
2023/12/30 10:46:20;;;;;;;0.60;0.60;;;9.10;99.90;;;;;;5043297;28;20634;-77
2023/12/30 10:48:52;;;;;;;2.10;0.60;;;9.10;99.90;;;;;;5043136;28;20976;-84
2023/12/30 10:51:23;;;;;;;0.70;0.70;;;9.10;99.50;;;;;;5042703;28;20641;-81
2023/12/30 10:53:58;;;;;;;1.20;0.50;;;9.20;99.90;;;;;;5040160;28;20754;-75
2023/12/30 10:56:30;;;;;;;0.57;0.43;;;9.20;99.30;;;;;;5043973;28;20210;-76
2023/12/30 10:59:04;;;;;;;0.33;0.33;;;9.20;98.90;;;;;;5043644;28;20630;-76
2023/12/30 11:01:33;;;;;;;0.80;0.50;;;9.10;99.30;;;;;;5046987;28;20809;-77
2023/12/30 11:04:01;;;;;;;0.67;0.67;;;9.10;99.40;;;;;;5046484;28;21186;-77
2023/12/30 11:06:35;;;;;;;0.60;0.50;;;9.20;99.10;;;;;;5036674;27;21190;-77
2023/12/30 11:09:07;;;;;;;1.43;0.80;;;9.20;98.60;;;;;;5034659;28;20666;-79
2023/12/30 11:11:40;;;;;;;1.60;0.67;;;9.20;98.80;;;;;;5033272;27;20723;-78
2023/12/30 11:14:12;;;;;;;1.10;1.00;;;9.30;98.70;;;;;;5034005;28;20634;-79
2023/12/30 11:16:40;;;;;;;0.50;0.40;;;9.20;98.80;;;;;;5028805;28;20660;-79
2023/12/30 11:19:07;;;;;;;0.93;0.33;;;9.20;98.50;;;;;;5029127;28;21192;-79
2023/12/30 11:21:39;;;;;;;0.53;0.53;;;9.30;97.80;;;;;;5023061;27;20624;-79
2023/12/30 11:24:08;;;;;;;1.37;1.20;;;9.40;98.80;;;;;;5023485;27;21021;-78
2023/12/30 11:26:39;;;;;;;0.67;0.37;;;9.50;98.50;;;;;;5032172;28;20646;-81
2023/12/30 11:29:10;;;;;;;0.87;0.87;;;9.50;97.50;;;;;;5030101;28;20639;-79
2023/12/30 11:31:38;;;;;;;0.40;0.30;;;9.50;98.10;;;;;;5037810;28;20714;-78
2023/12/30 11:34:05;;;;;;;0.60;0.50;;;9.50;98.60;;;;;;5051610;28;20631;-80
2023/12/30 11:36:32;;;;;;;0.40;0.40;;;9.50;98.30;;;;;;5050272;27;20619;-81
2023/12/30 11:39:01;;;;;;;1.23;0.50;;;9.50;97.50;;;;;;5061231;28;20715;-74
2023/12/30 11:41:29;;;;;;;0.40;0.30;;;9.60;96.80;;;;;;5056704;28;20641;-73
2023/12/30 11:43:58;;;;;;;1.17;0.70;;;9.70;97.80;;;;;;5042282;28;20767;-76
2023/12/30 11:46:27;;;;;;;0.60;0.40;;;9.60;97.50;;;;;;5043852;28;20635;-75
2023/12/30 11:48:54;;;;;;;0.50;0.40;;;9.70;97.60;;;;;;5049010;28;21061;-73
2023/12/30 11:51:21;;;;;;;0.43;0.37;;;9.80;97.10;;;;;;5043618;28;20629;-74
2023/12/30 11:53:48;;;;;;;1.90;0.97;;;10.00;97.20;;;;;;5050668;28;20627;-74
2023/12/30 11:56:16;;;;;;;0.40;0.30;;;10.00;95.70;;;;;;5048016;28;20638;-75
2023/12/30 11:58:43;;;;;;;0.80;0.70;;;10.10;96.40;;;;;;5048907;28;20632;-78
2023/12/30 12:01:11;;;;;;;0.73;0.50;;;10.20;96.80;;;;;;5054535;28;20632;-76
2023/12/30 12:03:38;;;;;;;2.50;0.40;;;10.20;96.10;;;;;;5038495;28;20668;-73
2023/12/30 12:06:06;;;;;;;1.27;0.63;;;10.30;96.00;;;;;;5036510;28;21311;-75
2023/12/30 12:08:32;;;;;;;0.70;0.70;;;10.40;95.80;;;;;;5042658;28;20732;-75
2023/12/30 12:11:00;;;;;;;0.30;0.30;;;10.50;96.00;;;;;;5038016;28;20725;-74
2023/12/30 12:13:27;;;;;;;0.57;0.50;;;10.50;95.10;;;;;;5037313;27;20621;-74
2023/12/30 12:15:55;;;;;;;0.43;0.40;;;10.60;95.80;;;;;;5035630;27;21230;-74
2023/12/30 12:18:24;;;;;;;0.30;0.23;;;10.50;94.90;;;;;;5038461;27;21206;-74
2023/12/30 12:20:52;;;;;;;0.50;0.50;;;10.50;95.50;;;;;;5040611;27;20642;-74
2023/12/30 12:23:19;;;;;;;0.70;0.67;;;10.40;96.00;;;;;;5035110;27;20658;-74
2023/12/30 12:25:46;;;;;;;0.40;0.40;;;10.60;95.60;;;;;;5030472;27;20634;-74
2023/12/30 12:28:16;;;;;;;0.40;0.37;;;10.60;95.70;;;;;;5036777;28;21178;-74
2023/12/30 12:30:44;;;;;;;0.50;0.43;;;10.60;95.60;;;;;;5054420;27;20672;-74
2023/12/30 12:33:14;;;;;;;0.30;0.20;;;10.50;94.80;;;;;;5050758;27;20920;-74
2023/12/30 12:35:42;;;;;;;0.50;0.50;;;10.40;94.60;;;;;;5053984;27;21140;-74
2023/12/30 12:38:09;;;;;;;0.67;0.60;;;10.40;95.70;;;;;;5048963;27;20618;-74
2023/12/30 12:40:38;;;;;;;0.40;0.30;;;10.30;94.60;;;;;;5057541;27;20974;-74
2023/12/30 12:43:04;;;;;;;0.50;0.40;;;10.30;94.40;;;;;;5042737;28;20669;-74
2023/12/30 12:45:31;;;;;;;0.60;0.30;;;10.30;94.70;;;;;;5046215;27;20717;-74
2023/12/30 12:47:58;;;;;;;0.70;0.60;;;10.30;95.20;;;;;;5055160;27;20651;-75
2023/12/30 12:50:25;;;;;;;3.60;0.87;;;10.30;95.60;;;;;;5047334;27;20720;-75
2023/12/30 12:52:53;;;;;;;0.60;0.50;;;10.30;94.80;;;;;;5052051;27;20645;-74
2023/12/30 12:55:20;;;;;;;0.40;0.40;;;10.30;94.80;;;;;;5053209;27;20628;-74
2023/12/30 12:57:47;;;;;;;0.60;0.60;;;10.30;94.80;;;;;;5043380;27;21036;-74